createdAt,value
2023-02-08T00:00:38.568Z,14.27
2023-02-08T00:03:05.780Z,14.93
2023-02-08T00:05:33.326Z,16.93
2023-02-08T00:08:00.912Z,12.47
2023-02-08T00:10:28.460Z,10.87
2023-02-08T00:12:55.999Z,8.83
2023-02-08T00:15:23.556Z,13.10
2023-02-08T00:17:51.250Z,15.50
2023-02-08T00:20:18.767Z,12.53
2023-02-08T00:22:46.372Z,14.83
2023-02-08T00:25:13.927Z,15.37
2023-02-08T00:27:41.451Z,14.77
2023-02-08T00:30:09.319Z,14.37
2023-02-08T00:32:36.849Z,14.40
2023-02-08T00:35:05.161Z,15.03
2023-02-08T00:37:32.736Z,12.57
2023-02-08T00:40:00.281Z,8.37
2023-02-08T00:42:27.821Z,7.93
2023-02-08T00:44:55.374Z,6.67
2023-02-08T00:47:22.907Z,10.37
2023-02-08T00:49:50.467Z,13.97
2023-02-08T00:52:18.070Z,14.20
2023-02-08T00:54:45.605Z,17.83
2023-02-08T00:57:13.931Z,18.50
2023-02-08T00:59:41.498Z,16.17
2023-02-08T01:02:09.073Z,16.37
2023-02-08T01:04:36.584Z,11.63
2023-02-08T01:07:04.167Z,11.93
2023-02-08T01:09:32.673Z,10.50
2023-02-08T01:12:00.142Z,9.80
2023-02-08T01:14:28.463Z,12.50
2023-02-08T01:16:56.002Z,10.00
2023-02-08T01:19:23.523Z,9.33
2023-02-08T01:21:51.088Z,8.43
2023-02-08T01:24:18.639Z,10.93
2023-02-08T01:26:46.160Z,8.43
2023-02-08T01:29:13.729Z,10.85
2023-02-08T01:31:41.364Z,9.67
2023-02-08T01:34:09.565Z,8.47
2023-02-08T01:36:37.434Z,9.57
2023-02-08T01:39:04.964Z,15.90
2023-02-08T01:41:32.535Z,13.23
2023-02-08T01:44:02.633Z,13.20
2023-02-08T01:46:30.143Z,12.37
2023-02-08T01:48:57.690Z,11.97
2023-02-08T01:51:25.524Z,9.40
2023-02-08T01:53:53.062Z,8.83
2023-02-08T01:56:21.362Z,8.77
2023-02-08T01:58:48.977Z,6.97
2023-02-08T02:01:16.540Z,6.33
2023-02-08T02:03:44.065Z,9.30
2023-02-08T02:06:14.612Z,9.00
2023-02-08T02:08:42.118Z,8.03
2023-02-08T02:11:09.644Z,8.95
2023-02-08T02:13:37.231Z,7.97
2023-02-08T02:16:05.649Z,7.07
2023-02-08T02:18:33.119Z,6.73
2023-02-08T02:21:21.698Z,6.53
2023-02-08T02:24:10.929Z,6.67
2023-02-08T02:26:47.530Z,6.50
2023-02-08T02:29:23.509Z,7.20
2023-02-08T02:32:11.171Z,7.27
2023-02-08T02:34:41.499Z,6.57
2023-02-08T02:37:29.768Z,6.50
2023-02-08T02:40:02.944Z,6.30
2023-02-08T02:42:48.772Z,6.87
2023-02-08T02:45:22.176Z,6.80
2023-02-08T02:47:59.135Z,6.43
2023-02-08T02:50:48.105Z,6.53
2023-02-08T02:53:24.574Z,6.53
2023-02-08T02:55:57.675Z,6.70
2023-02-08T02:58:25.973Z,8.48
2023-02-08T03:00:56.604Z,7.23
2023-02-08T03:03:24.096Z,7.47
2023-02-08T03:05:51.645Z,6.90
2023-02-08T03:08:24.681Z,7.17
2023-02-08T03:11:00.801Z,6.43
2023-02-08T03:13:49.640Z,6.83
2023-02-08T03:16:19.889Z,6.90
2023-02-08T03:19:18.378Z,6.23
2023-02-08T03:21:57.431Z,6.37
2023-02-08T03:24:33.689Z,5.93
2023-02-08T03:27:06.905Z,8.38
2023-02-08T03:29:37.922Z,7.37
2023-02-08T03:32:17.704Z,6.23
2023-02-08T03:34:54.314Z,6.07
2023-02-08T03:37:21.874Z,6.30
2023-02-08T03:39:49.461Z,6.20
2023-02-08T03:42:16.967Z,6.50
2023-02-08T03:44:47.802Z,6.30
2023-02-08T03:47:24.587Z,6.50
2023-02-08T03:49:52.156Z,6.00
2023-02-08T03:52:19.689Z,6.47
2023-02-08T03:54:50.372Z,6.90
2023-02-08T03:57:23.649Z,6.80
2023-02-08T03:59:51.040Z,5.90
2023-02-08T04:02:19.405Z,6.30
2023-02-08T04:04:46.899Z,6.43
2023-02-08T04:07:14.437Z,5.63
2023-02-08T04:09:42.726Z,6.60
2023-02-08T04:12:10.280Z,6.23
2023-02-08T04:14:37.832Z,6.57
2023-02-08T04:17:06.121Z,5.80
2023-02-08T04:19:33.696Z,6.33
2023-02-08T04:22:01.273Z,5.93
2023-02-08T04:24:28.774Z,5.20
2023-02-08T04:26:57.151Z,6.10
2023-02-08T04:29:24.675Z,5.90
2023-02-08T04:31:52.287Z,8.13
2023-02-08T04:34:19.799Z,6.87
2023-02-08T04:36:47.325Z,6.70
2023-02-08T04:39:14.864Z,6.53
2023-02-08T04:41:43.178Z,6.27
2023-02-08T04:44:10.708Z,6.43
2023-02-08T04:46:38.260Z,6.70
2023-02-08T04:49:05.811Z,6.07
2023-02-08T04:51:34.122Z,6.20
2023-02-08T04:54:01.676Z,6.50
2023-02-08T04:56:30.004Z,6.93
2023-02-08T04:58:57.530Z,6.53
2023-02-08T05:01:25.133Z,6.40
2023-02-08T05:03:52.724Z,5.90
2023-02-08T05:06:21.742Z,6.47
2023-02-08T05:08:49.269Z,6.20
2023-02-08T05:11:20.731Z,6.10
2023-02-08T05:13:48.256Z,11.10
2023-02-08T05:16:16.667Z,9.23
2023-02-08T05:18:45.353Z,9.27
2023-02-08T05:21:12.874Z,8.57
2023-02-08T05:23:40.450Z,8.03
2023-02-08T05:26:08.772Z,8.17
2023-02-08T05:28:36.327Z,8.77
2023-02-08T05:31:15.861Z,8.37
2023-02-08T05:33:43.261Z,7.33
2023-02-08T05:36:10.788Z,7.93
2023-02-08T05:38:38.369Z,7.77
2023-02-08T05:41:05.915Z,7.43
2023-02-08T05:43:33.433Z,7.80
2023-02-08T05:46:01.010Z,7.17
2023-02-08T05:48:28.602Z,6.50
2023-02-08T05:50:56.146Z,7.00
2023-02-08T05:53:23.758Z,8.80
2023-02-08T05:55:51.325Z,7.50
2023-02-08T05:58:18.825Z,6.40
2023-02-08T06:00:46.409Z,7.20
2023-02-08T06:03:14.651Z,6.40
2023-02-08T06:05:42.101Z,6.93
2023-02-08T06:08:09.697Z,6.03
2023-02-08T06:10:37.232Z,6.23
2023-02-08T06:13:04.775Z,6.20
2023-02-08T06:15:32.339Z,6.83
2023-02-08T06:17:59.876Z,6.30
2023-02-08T06:20:27.465Z,6.27
2023-02-08T06:22:55.032Z,10.20
2023-02-08T06:25:22.585Z,8.10
2023-02-08T06:27:50.167Z,6.60
2023-02-08T06:30:17.966Z,8.90
2023-02-08T06:32:45.733Z,8.37
2023-02-08T06:35:14.060Z,8.33
2023-02-08T06:37:41.624Z,10.03
2023-02-08T06:40:09.258Z,8.93
2023-02-08T06:42:36.812Z,15.33
2023-02-08T06:45:04.466Z,13.50
2023-02-08T06:47:32.018Z,12.00
2023-02-08T06:49:59.584Z,13.20
2023-02-08T06:52:27.185Z,13.07
2023-02-08T06:54:54.724Z,11.87
2023-02-08T06:57:22.266Z,10.80
2023-02-08T06:59:49.840Z,12.30
2023-02-08T07:02:17.405Z,11.33
2023-02-08T07:04:44.920Z,9.03
2023-02-08T07:07:13.261Z,8.63
2023-02-08T07:09:40.813Z,7.70
2023-02-08T07:12:08.385Z,11.33
2023-02-08T07:14:35.991Z,11.38
2023-02-08T07:17:03.533Z,8.23
2023-02-08T07:19:31.824Z,7.23
2023-02-08T07:22:02.562Z,7.30
2023-02-08T07:24:30.103Z,6.63
2023-02-08T07:26:57.662Z,7.17
2023-02-08T07:29:26.001Z,6.80
2023-02-08T07:31:53.570Z,7.03
2023-02-08T07:34:21.097Z,9.47
2023-02-08T07:36:48.702Z,9.55
2023-02-08T07:39:16.228Z,9.27
2023-02-08T07:41:43.762Z,9.03
2023-02-08T07:44:11.345Z,17.15
2023-02-08T07:46:38.920Z,11.10
2023-02-08T07:49:06.447Z,10.43
2023-02-08T07:51:34.024Z,10.10
2023-02-08T07:54:01.592Z,7.60
2023-02-08T07:56:29.110Z,6.90
2023-02-08T07:58:56.701Z,6.53
2023-02-08T08:01:24.267Z,6.40
2023-02-08T08:03:51.860Z,5.20
2023-02-08T08:06:19.365Z,6.63
2023-02-08T08:08:46.900Z,7.20
2023-02-08T08:11:15.180Z,7.60
2023-02-08T08:13:42.762Z,8.40
2023-02-08T08:16:10.289Z,9.03
2023-02-08T08:18:38.589Z,6.37
2023-02-08T08:21:06.175Z,6.00
2023-02-08T08:23:33.729Z,5.13
2023-02-08T08:26:01.263Z,5.80
2023-02-08T08:28:28.949Z,7.47
2023-02-08T08:30:56.477Z,6.10
2023-02-08T08:33:23.910Z,5.70
2023-02-08T08:35:52.254Z,6.60
2023-02-08T08:38:19.794Z,6.30
2023-02-08T08:40:47.301Z,5.10
2023-02-08T08:43:15.711Z,7.12
2023-02-08T08:45:43.248Z,5.90
2023-02-08T08:48:10.874Z,6.50
2023-02-08T08:50:38.957Z,6.03
2023-02-08T08:53:06.756Z,7.17
2023-02-08T08:55:34.277Z,6.43
2023-02-08T08:58:01.851Z,6.50
2023-02-08T09:00:30.152Z,5.63
2023-02-08T09:02:57.714Z,5.93
2023-02-08T09:05:26.408Z,5.60
2023-02-08T09:07:53.924Z,6.53
2023-02-08T09:10:22.282Z,6.20
2023-02-08T09:12:49.841Z,6.85
2023-02-08T09:15:17.350Z,6.00
2023-02-08T09:20:21.801Z,4.97
2023-02-08T09:22:49.285Z,6.65
2023-02-08T09:25:16.899Z,6.80
2023-02-08T09:27:44.491Z,5.70
2023-02-08T09:30:13.601Z,5.13
2023-02-08T09:32:41.145Z,5.90
2023-02-08T09:35:08.725Z,5.57
2023-02-08T09:37:36.266Z,4.73
2023-02-08T09:40:03.792Z,5.00
2023-02-08T09:42:31.358Z,4.40
2023-02-08T09:45:16.688Z,5.00
2023-02-08T09:47:46.909Z,4.57
2023-02-08T09:50:20.336Z,4.20
2023-02-08T09:52:50.482Z,5.53
2023-02-08T09:55:18.065Z,4.80
2023-02-08T09:57:45.576Z,4.60
2023-02-08T10:00:13.969Z,4.37
2023-02-08T10:02:41.560Z,3.90
2023-02-08T10:05:15.007Z,4.33
2023-02-08T10:07:42.601Z,4.33
2023-02-08T10:10:12.886Z,4.00
2023-02-08T10:12:47.422Z,4.03
2023-02-08T10:15:34.236Z,3.77
2023-02-08T10:18:20.207Z,4.00
2023-02-08T10:20:50.887Z,4.43
2023-02-08T10:23:48.585Z,4.78
2023-02-08T10:26:24.759Z,4.20
2023-02-08T10:29:01.178Z,3.10
2023-02-08T10:31:32.311Z,3.10
2023-02-08T10:34:03.547Z,3.67
2023-02-08T10:36:33.786Z,3.53
2023-02-08T10:39:01.361Z,3.60
2023-02-08T10:41:34.618Z,3.73
2023-02-08T10:44:02.131Z,3.53
2023-02-08T10:46:32.689Z,3.10
2023-02-08T10:49:06.412Z,4.28
2023-02-08T10:51:33.956Z,3.50
2023-02-08T10:54:02.297Z,3.53
2023-02-08T10:56:35.653Z,3.37
2023-02-08T10:59:03.177Z,3.78
2023-02-08T11:01:31.532Z,3.10
2023-02-08T11:04:01.910Z,3.33
2023-02-08T11:06:30.170Z,3.90
2023-02-08T11:08:57.774Z,3.30
2023-02-08T11:11:25.297Z,3.03
2023-02-08T11:13:52.824Z,3.93
2023-02-08T11:16:21.190Z,3.23
2023-02-08T11:18:48.690Z,2.87
2023-02-08T11:21:28.220Z,2.70
2023-02-08T11:23:55.745Z,3.30
2023-02-08T11:26:32.264Z,2.67
2023-02-08T11:28:59.833Z,3.40
2023-02-08T11:31:27.406Z,2.70
2023-02-08T11:34:06.501Z,3.43
2023-02-08T11:36:34.038Z,3.07
2023-02-08T11:39:02.349Z,3.10
2023-02-08T11:41:30.537Z,2.87
2023-02-08T11:43:58.075Z,2.63
2023-02-08T11:46:25.660Z,2.90
2023-02-08T11:48:53.315Z,2.77
2023-02-08T11:51:26.631Z,2.70
2023-02-08T11:53:54.264Z,2.60
2023-02-08T11:56:21.844Z,2.63
2023-02-08T11:59:01.414Z,2.60
2023-02-08T12:01:28.968Z,2.13
2023-02-08T12:03:57.685Z,2.47
2023-02-08T12:06:48.438Z,3.33
2023-02-08T12:09:21.745Z,2.37
2023-02-08T12:11:49.278Z,2.30
2023-02-08T12:14:16.848Z,2.70
2023-02-08T12:17:05.237Z,2.90
2023-02-08T12:20:03.795Z,2.47
2023-02-08T12:22:31.312Z,2.57
2023-02-08T12:25:17.293Z,2.47
2023-02-08T12:28:11.982Z,2.53
2023-02-08T12:30:54.414Z,2.47
2023-02-08T12:33:30.339Z,2.80
2023-02-08T12:36:05.476Z,2.37
2023-02-08T12:39:00.380Z,2.27
2023-02-08T12:41:31.460Z,2.10
2023-02-08T12:44:20.404Z,2.33
2023-02-08T12:46:48.262Z,2.37
2023-02-08T12:49:37.267Z,2.40
2023-02-08T12:52:29.146Z,2.30
2023-02-08T12:54:59.110Z,2.43
2023-02-08T12:57:26.664Z,1.93
2023-02-08T12:59:59.368Z,2.80
2023-02-08T13:02:33.614Z,2.83
2023-02-08T13:05:01.133Z,2.07
2023-02-08T13:07:34.193Z,2.57
2023-02-08T13:10:23.296Z,2.20
2023-02-08T13:12:51.653Z,2.30
2023-02-08T13:15:37.181Z,3.60
2023-02-08T13:18:19.492Z,2.75
2023-02-08T13:20:52.966Z,2.60
2023-02-08T13:23:51.617Z,2.30
2023-02-08T13:26:11.811Z,2.77
2023-02-08T13:28:39.370Z,3.10
2023-02-08T13:31:09.753Z,2.33
2023-02-08T13:33:42.633Z,2.13
2023-02-08T13:36:07.556Z,2.10
2023-02-08T13:38:35.148Z,2.40
2023-02-08T13:41:08.434Z,2.33
2023-02-08T13:43:48.340Z,2.70
2023-02-08T13:46:16.663Z,2.80
2023-02-08T13:48:50.146Z,2.40
2023-02-08T13:51:30.403Z,1.83
2023-02-08T13:53:57.976Z,2.50
2023-02-08T13:56:37.654Z,2.30
2023-02-08T13:59:05.187Z,2.00
2023-02-08T14:01:35.275Z,2.63
2023-02-08T14:04:08.502Z,2.43
2023-02-08T14:06:36.032Z,2.27
2023-02-08T14:09:06.520Z,2.40
2023-02-08T14:11:40.898Z,2.37
2023-02-08T14:14:14.293Z,2.40
2023-02-08T14:16:41.819Z,2.50
2023-02-08T14:19:18.418Z,2.60
2023-02-08T14:22:01.156Z,2.67
2023-02-08T14:24:35.537Z,2.87
2023-02-08T14:27:11.922Z,2.30
2023-02-08T14:29:39.447Z,2.10
2023-02-08T14:32:07.092Z,2.67
2023-02-08T14:34:35.459Z,2.20
2023-02-08T14:37:11.207Z,2.47
2023-02-08T14:39:38.769Z,2.10
2023-02-08T14:42:06.315Z,2.53
2023-02-08T14:44:39.792Z,2.60
2023-02-08T14:47:25.710Z,2.10
2023-02-08T14:50:05.864Z,1.90
2023-02-08T14:52:35.269Z,2.07
2023-02-08T14:55:00.984Z,1.80
2023-02-08T14:57:32.033Z,1.90
2023-02-08T14:59:59.581Z,1.77
2023-02-08T15:02:27.880Z,2.07
2023-02-08T15:04:55.432Z,1.93
2023-02-08T15:07:33.589Z,1.87
2023-02-08T15:09:59.445Z,1.70
2023-02-08T15:12:32.710Z,1.70
2023-02-08T15:15:01.076Z,1.70
2023-02-08T15:17:37.468Z,1.73
2023-02-08T15:20:05.812Z,1.90
2023-02-08T15:22:36.506Z,1.70
2023-02-08T15:25:28.696Z,1.67
2023-02-08T15:27:56.247Z,1.77
2023-02-08T15:30:26.713Z,1.73
2023-02-08T15:32:55.038Z,1.63
2023-02-08T15:35:22.574Z,1.50
2023-02-08T15:37:50.094Z,1.50
2023-02-08T15:40:30.485Z,1.47
2023-02-08T15:43:03.427Z,1.73
2023-02-08T15:45:31.046Z,1.70
2023-02-08T15:47:58.536Z,1.67
2023-02-08T15:50:26.063Z,1.67
2023-02-08T15:52:56.510Z,2.53
2023-02-08T15:55:24.448Z,3.17
2023-02-08T15:58:03.896Z,3.83
2023-02-08T16:00:31.481Z,1.77
2023-02-08T16:03:08.350Z,1.90
2023-02-08T16:05:35.862Z,1.97
2023-02-08T16:08:03.386Z,2.20
2023-02-08T16:10:36.375Z,1.73
2023-02-08T16:13:06.677Z,2.03
2023-02-08T16:15:40.158Z,2.07
2023-02-08T16:18:07.704Z,2.40
2023-02-08T16:20:35.314Z,1.80
2023-02-08T16:23:02.840Z,1.67
2023-02-08T16:25:30.334Z,2.37
2023-02-08T16:27:57.955Z,1.90
2023-02-08T16:30:26.265Z,1.70
2023-02-08T16:32:53.763Z,1.63
2023-02-08T16:35:28.099Z,1.50
2023-02-08T16:37:59.067Z,2.00
2023-02-08T16:40:38.904Z,2.10
2023-02-08T16:43:15.705Z,1.80
2023-02-08T16:45:43.286Z,1.70
2023-02-08T16:48:28.714Z,2.05
2023-02-08T16:50:54.522Z,2.10
2023-02-08T16:53:25.933Z,1.97
2023-02-08T16:55:50.341Z,1.80
2023-02-08T16:58:17.914Z,1.80
2023-02-08T17:00:45.865Z,1.83
2023-02-08T17:03:13.779Z,1.70
2023-02-08T17:05:41.317Z,1.77
2023-02-08T17:08:08.862Z,1.90
2023-02-08T17:10:36.385Z,2.20
2023-02-08T17:13:19.115Z,2.90
2023-02-08T17:15:32.270Z,5.23
2023-02-08T17:17:59.813Z,5.97
2023-02-08T17:20:33.163Z,4.10
2023-02-08T17:23:00.706Z,3.37
2023-02-08T17:25:28.206Z,2.73
2023-02-08T17:27:56.597Z,2.87
2023-02-08T17:30:27.056Z,2.40
2023-02-08T17:32:58.049Z,3.37
2023-02-08T17:35:25.599Z,3.07
2023-02-08T17:37:53.890Z,2.77
2023-02-08T17:40:21.465Z,2.60
2023-02-08T17:42:49.045Z,2.23
2023-02-08T17:45:16.559Z,5.03
2023-02-08T17:47:44.875Z,5.50
2023-02-08T17:50:12.448Z,5.37
2023-02-08T17:52:39.993Z,4.20
2023-02-08T17:55:07.569Z,2.90
2023-02-08T17:57:35.141Z,2.60
2023-02-08T18:00:02.692Z,3.40
2023-02-08T18:02:30.218Z,5.63
2023-02-08T18:04:57.865Z,2.90
2023-02-08T18:07:25.386Z,3.40
2023-02-08T18:09:52.973Z,5.10
2023-02-08T18:12:21.315Z,7.60
2023-02-08T18:14:48.861Z,7.20
2023-02-08T18:17:16.384Z,6.97
2023-02-08T18:19:43.958Z,8.37
2023-02-08T18:22:11.506Z,9.77
2023-02-08T18:24:39.038Z,8.93
2023-02-08T18:27:07.379Z,9.47
2023-02-08T18:29:34.907Z,7.30
2023-02-08T18:32:02.497Z,5.83
2023-02-08T18:34:30.785Z,12.20
2023-02-08T18:36:58.324Z,5.40
2023-02-08T18:39:25.878Z,7.68
2023-02-08T18:41:53.727Z,6.50
2023-02-08T18:44:21.285Z,5.60
2023-02-08T18:46:48.877Z,8.07
2023-02-08T18:49:17.144Z,7.60
2023-02-08T18:51:44.681Z,7.63
2023-02-08T18:54:12.226Z,7.73
2023-02-08T18:56:39.805Z,9.23
2023-02-08T18:59:07.356Z,7.43
2023-02-08T19:01:34.924Z,4.17
2023-02-08T19:04:05.790Z,4.60
2023-02-08T19:06:33.335Z,5.13
2023-02-08T19:09:00.866Z,8.38
2023-02-08T19:11:28.457Z,11.40
2023-02-08T19:13:55.990Z,5.90
2023-02-08T19:16:23.555Z,6.32
2023-02-08T19:18:51.857Z,5.00
2023-02-08T19:21:19.400Z,5.20
2023-02-08T19:23:46.944Z,4.80
2023-02-08T19:26:17.157Z,4.63
2023-02-08T19:28:44.701Z,4.23
2023-02-08T19:31:12.356Z,4.93
2023-02-08T19:33:40.963Z,4.00
2023-02-08T19:36:08.485Z,3.87
2023-02-08T19:38:36.805Z,3.23
2023-02-08T19:41:04.400Z,4.03
2023-02-08T19:43:31.922Z,4.27
2023-02-08T19:45:59.492Z,3.73
2023-02-08T19:48:27.780Z,12.83
2023-02-08T19:50:55.342Z,18.43
2023-02-08T19:53:22.869Z,16.35
2023-02-08T19:55:59.468Z,11.50
2023-02-08T19:58:26.961Z,6.97
2023-02-08T20:00:55.316Z,5.27
2023-02-08T20:03:22.837Z,4.70
2023-02-08T20:05:50.371Z,5.57
2023-02-08T20:08:18.677Z,4.10
2023-02-08T20:10:46.255Z,4.27
2023-02-08T20:13:13.771Z,4.80
2023-02-08T20:15:42.395Z,4.63
2023-02-08T20:18:09.930Z,6.03
2023-02-08T20:20:37.465Z,5.13
2023-02-08T20:23:14.140Z,4.13
2023-02-08T20:25:32.580Z,6.40
2023-02-08T20:28:00.970Z,10.30
2023-02-08T20:30:28.419Z,10.97
2023-02-08T20:32:56.752Z,11.90
2023-02-08T20:35:24.285Z,9.97
2023-02-08T20:37:51.828Z,8.03
2023-02-08T20:40:19.405Z,8.00
2023-02-08T20:42:46.953Z,22.37
2023-02-08T20:45:15.382Z,7.93
2023-02-08T20:47:46.600Z,6.33
2023-02-08T20:50:18.132Z,7.13
2023-02-08T20:52:37.910Z,7.03
2023-02-08T20:55:05.506Z,8.30
2023-02-08T20:57:33.045Z,8.17
2023-02-08T21:00:00.578Z,6.40
2023-02-08T21:02:29.723Z,6.77
2023-02-08T21:04:57.226Z,8.07
2023-02-08T21:07:25.533Z,8.00
2023-02-08T21:09:53.387Z,9.33
2023-02-08T21:12:20.933Z,12.97
2023-02-08T21:14:49.226Z,14.63
2023-02-08T21:17:16.809Z,9.90
2023-02-08T21:19:44.355Z,10.90
2023-02-08T21:22:11.889Z,15.63
2023-02-08T21:24:39.478Z,14.23
2023-02-08T21:27:07.033Z,12.40
2023-02-08T21:29:34.551Z,11.43
2023-02-08T21:32:03.284Z,9.97
2023-02-08T21:34:30.465Z,9.10
2023-02-08T21:36:58.017Z,8.13
2023-02-08T21:39:25.564Z,8.70
2023-02-08T21:41:53.136Z,9.40
2023-02-08T21:44:20.665Z,8.90
2023-02-08T21:46:48.523Z,8.87
2023-02-08T21:49:34.131Z,8.67
2023-02-08T21:52:19.755Z,7.27
2023-02-08T21:54:48.058Z,9.27
2023-02-08T21:57:18.319Z,7.63
2023-02-08T21:59:45.901Z,8.43
2023-02-08T22:02:14.227Z,13.47
2023-02-08T22:04:59.701Z,17.40
2023-02-08T22:07:27.230Z,21.33
2023-02-08T22:09:55.549Z,13.50
2023-02-08T22:12:23.150Z,14.40
2023-02-08T22:14:50.665Z,12.37
2023-02-08T22:17:18.173Z,9.93
2023-02-08T22:19:46.549Z,9.07
2023-02-08T22:22:14.086Z,9.77
2023-02-08T22:24:41.642Z,9.77
2023-02-08T22:27:09.184Z,8.50
2023-02-08T22:29:36.725Z,8.13
2023-02-08T22:32:04.344Z,9.43
2023-02-08T22:34:31.854Z,9.57
2023-02-08T22:36:59.380Z,8.70
2023-02-08T22:39:26.909Z,8.17
2023-02-08T22:41:54.467Z,8.23
2023-02-08T22:44:22.041Z,8.70
2023-02-08T22:46:49.615Z,8.00
2023-02-08T22:49:17.143Z,10.70
2023-02-08T22:51:44.693Z,8.63
2023-02-08T22:54:12.228Z,11.20
2023-02-08T22:56:39.802Z,7.93
2023-02-08T22:59:07.349Z,8.33
2023-02-08T23:01:34.920Z,7.67
2023-02-08T23:04:03.051Z,8.50
2023-02-08T23:06:30.632Z,9.93
2023-02-08T23:08:58.157Z,9.43
2023-02-08T23:11:25.833Z,10.43
2023-02-08T23:13:53.387Z,10.10
2023-02-08T23:16:20.954Z,9.73
2023-02-08T23:18:49.536Z,7.87
2023-02-08T23:21:17.094Z,8.10
2023-02-08T23:23:45.393Z,13.87
2023-02-08T23:26:12.970Z,13.87
2023-02-08T23:28:40.521Z,9.57
2023-02-08T23:31:08.202Z,10.83
2023-02-08T23:33:35.639Z,11.37
2023-02-08T23:36:06.320Z,11.47
2023-02-08T23:38:33.848Z,12.10
2023-02-08T23:41:09.886Z,14.87
2023-02-08T23:43:37.441Z,12.97
2023-02-08T23:46:10.783Z,13.17
2023-02-08T23:48:39.414Z,13.27
2023-02-08T23:51:06.684Z,12.10
2023-02-08T23:53:34.227Z,12.60
2023-02-08T23:56:10.433Z,11.60
2023-02-08T23:58:37.983Z,12.37
